sensor_id;sensor_type;location;lat;lon;timestamp;temperature;humidity
23283;DHT22;11810;51.178;3.878;2023-07-29T00:01:14;18.20;99.90
23283;DHT22;11810;51.178;3.878;2023-07-29T00:03:40;18.30;99.90
23283;DHT22;11810;51.178;3.878;2023-07-29T00:06:06;18.20;99.90
23283;DHT22;11810;51.178;3.878;2023-07-29T00:08:32;18.40;99.90
23283;DHT22;11810;51.178;3.878;2023-07-29T00:10:58;18.30;99.90
23283;DHT22;11810;51.178;3.878;2023-07-29T00:13:24;18.10;99.90
23283;DHT22;11810;51.178;3.878;2023-07-29T00:15:50;18.10;99.90
23283;DHT22;11810;51.178;3.878;2023-07-29T00:18:16;18.10;99.90
23283;DHT22;11810;51.178;3.878;2023-07-29T00:20:42;18.10;99.90
23283;DHT22;11810;51.178;3.878;2023-07-29T00:23:08;18.10;99.90
23283;DHT22;11810;51.178;3.878;2023-07-29T00:25:33;18.10;99.90
23283;DHT22;11810;51.178;3.878;2023-07-29T00:27:59;18.10;99.90
23283;DHT22;11810;51.178;3.878;2023-07-29T00:30:25;18.00;99.90
23283;DHT22;11810;51.178;3.878;2023-07-29T00:32:51;17.90;99.90
23283;DHT22;11810;51.178;3.878;2023-07-29T00:35:17;17.90;99.90
23283;DHT22;11810;51.178;3.878;2023-07-29T00:37:43;17.80;99.90
23283;DHT22;11810;51.178;3.878;2023-07-29T00:40:15;17.90;99.90
23283;DHT22;11810;51.178;3.878;2023-07-29T00:42:42;17.90;99.90
23283;DHT22;11810;51.178;3.878;2023-07-29T00:45:09;18.00;99.90
23283;DHT22;11810;51.178;3.878;2023-07-29T00:47:35;17.90;99.90
23283;DHT22;11810;51.178;3.878;2023-07-29T00:50:01;17.80;99.90
23283;DHT22;11810;51.178;3.878;2023-07-29T00:52:27;17.90;99.90
23283;DHT22;11810;51.178;3.878;2023-07-29T00:54:53;17.80;99.90
23283;DHT22;11810;51.178;3.878;2023-07-29T00:57:19;17.70;99.90
23283;DHT22;11810;51.178;3.878;2023-07-29T00:59:46;17.70;99.90
23283;DHT22;11810;51.178;3.878;2023-07-29T01:02:12;17.70;99.90
23283;DHT22;11810;51.178;3.878;2023-07-29T01:04:38;17.70;99.90
23283;DHT22;11810;51.178;3.878;2023-07-29T01:10:03;17.70;99.90
23283;DHT22;11810;51.178;3.878;2023-07-29T01:12:47;17.70;99.90
23283;DHT22;11810;51.178;3.878;2023-07-29T01:15:16;17.80;99.90
23283;DHT22;11810;51.178;3.878;2023-07-29T01:17:47;17.80;99.90
23283;DHT22;11810;51.178;3.878;2023-07-29T01:20:17;17.90;99.90
23283;DHT22;11810;51.178;3.878;2023-07-29T01:22:46;17.90;99.90
23283;DHT22;11810;51.178;3.878;2023-07-29T01:25:15;18.00;99.90
23283;DHT22;11810;51.178;3.878;2023-07-29T01:27:45;18.00;99.90
23283;DHT22;11810;51.178;3.878;2023-07-29T01:30:12;17.90;99.90
23283;DHT22;11810;51.178;3.878;2023-07-29T01:35:27;17.90;99.90
23283;DHT22;11810;51.178;3.878;2023-07-29T01:38:07;17.90;99.90
23283;DHT22;11810;51.178;3.878;2023-07-29T01:40:35;17.90;99.90
23283;DHT22;11810;51.178;3.878;2023-07-29T01:43:01;17.90;99.90
23283;DHT22;11810;51.178;3.878;2023-07-29T01:45:29;17.90;99.90
23283;DHT22;11810;51.178;3.878;2023-07-29T01:47:57;17.90;99.90
23283;DHT22;11810;51.178;3.878;2023-07-29T01:50:23;17.90;99.90
23283;DHT22;11810;51.178;3.878;2023-07-29T01:52:49;17.90;99.90
23283;DHT22;11810;51.178;3.878;2023-07-29T01:55:15;17.90;99.90
23283;DHT22;11810;51.178;3.878;2023-07-29T01:57:41;17.70;99.90
23283;DHT22;11810;51.178;3.878;2023-07-29T02:00:07;17.80;99.90
23283;DHT22;11810;51.178;3.878;2023-07-29T02:02:34;17.70;99.90
23283;DHT22;11810;51.178;3.878;2023-07-29T02:05:01;17.70;99.90
23283;DHT22;11810;51.178;3.878;2023-07-29T02:07:26;17.70;99.90
23283;DHT22;11810;51.178;3.878;2023-07-29T02:09:53;17.70;99.90
23283;DHT22;11810;51.178;3.878;2023-07-29T02:12:19;17.70;99.90
23283;DHT22;11810;51.178;3.878;2023-07-29T02:14:45;17.90;99.90
23283;DHT22;11810;51.178;3.878;2023-07-29T02:17:11;17.80;99.90
23283;DHT22;11810;51.178;3.878;2023-07-29T02:19:37;17.70;99.90
23283;DHT22;11810;51.178;3.878;2023-07-29T02:22:03;17.70;99.90
23283;DHT22;11810;51.178;3.878;2023-07-29T02:24:29;17.80;99.90
23283;DHT22;11810;51.178;3.878;2023-07-29T02:26:55;17.80;99.90
23283;DHT22;11810;51.178;3.878;2023-07-29T02:29:21;17.70;99.90
23283;DHT22;11810;51.178;3.878;2023-07-29T02:31:47;17.70;99.90
23283;DHT22;11810;51.178;3.878;2023-07-29T02:34:13;17.80;99.90
23283;DHT22;11810;51.178;3.878;2023-07-29T02:36:39;17.70;99.90
23283;DHT22;11810;51.178;3.878;2023-07-29T02:39:05;17.70;99.90
23283;DHT22;11810;51.178;3.878;2023-07-29T02:41:31;17.70;99.90
23283;DHT22;11810;51.178;3.878;2023-07-29T02:43:57;17.70;99.90
23283;DHT22;11810;51.178;3.878;2023-07-29T02:46:23;17.60;99.90
23283;DHT22;11810;51.178;3.878;2023-07-29T02:48:50;17.60;99.90
23283;DHT22;11810;51.178;3.878;2023-07-29T02:51:16;17.50;99.90
23283;DHT22;11810;51.178;3.878;2023-07-29T02:53:42;17.50;99.90
23283;DHT22;11810;51.178;3.878;2023-07-29T02:56:08;17.50;99.90
23283;DHT22;11810;51.178;3.878;2023-07-29T02:58:36;17.40;99.90
23283;DHT22;11810;51.178;3.878;2023-07-29T03:01:03;17.60;99.90
23283;DHT22;11810;51.178;3.878;2023-07-29T03:03:30;17.50;99.90
23283;DHT22;11810;51.178;3.878;2023-07-29T03:06:01;17.60;99.90
23283;DHT22;11810;51.178;3.878;2023-07-29T03:08:27;17.40;99.90
23283;DHT22;11810;51.178;3.878;2023-07-29T03:10:54;17.40;99.90
23283;DHT22;11810;51.178;3.878;2023-07-29T03:13:20;17.40;99.90
23283;DHT22;11810;51.178;3.878;2023-07-29T03:15:46;17.40;99.90
23283;DHT22;11810;51.178;3.878;2023-07-29T03:18:12;17.40;99.90
23283;DHT22;11810;51.178;3.878;2023-07-29T03:20:38;17.40;99.90
23283;DHT22;11810;51.178;3.878;2023-07-29T03:23:04;17.50;99.90
23283;DHT22;11810;51.178;3.878;2023-07-29T03:25:30;17.50;99.90
23283;DHT22;11810;51.178;3.878;2023-07-29T03:27:56;17.50;99.90
23283;DHT22;11810;51.178;3.878;2023-07-29T03:30:22;17.50;99.90
23283;DHT22;11810;51.178;3.878;2023-07-29T03:32:49;17.50;99.90
23283;DHT22;11810;51.178;3.878;2023-07-29T03:35:15;17.50;99.90
23283;DHT22;11810;51.178;3.878;2023-07-29T03:37:41;17.70;99.90
23283;DHT22;11810;51.178;3.878;2023-07-29T03:40:07;17.60;99.90
23283;DHT22;11810;51.178;3.878;2023-07-29T03:42:35;17.70;99.90
23283;DHT22;11810;51.178;3.878;2023-07-29T03:45:01;17.70;99.90
23283;DHT22;11810;51.178;3.878;2023-07-29T03:47:27;17.70;99.90
23283;DHT22;11810;51.178;3.878;2023-07-29T03:49:53;17.70;99.90
23283;DHT22;11810;51.178;3.878;2023-07-29T03:52:19;17.80;99.90
23283;DHT22;11810;51.178;3.878;2023-07-29T03:54:45;17.90;99.90
23283;DHT22;11810;51.178;3.878;2023-07-29T03:57:11;17.90;99.90
23283;DHT22;11810;51.178;3.878;2023-07-29T03:59:37;17.80;99.90
23283;DHT22;11810;51.178;3.878;2023-07-29T04:02:03;17.90;99.90
23283;DHT22;11810;51.178;3.878;2023-07-29T04:04:29;17.80;99.90
23283;DHT22;11810;51.178;3.878;2023-07-29T04:06:55;17.80;99.90
23283;DHT22;11810;51.178;3.878;2023-07-29T04:09:21;17.90;99.90
23283;DHT22;11810;51.178;3.878;2023-07-29T04:11:47;18.00;99.90
23283;DHT22;11810;51.178;3.878;2023-07-29T04:14:13;18.00;99.90
23283;DHT22;11810;51.178;3.878;2023-07-29T04:16:39;18.00;99.90
23283;DHT22;11810;51.178;3.878;2023-07-29T04:19:05;18.00;99.90
23283;DHT22;11810;51.178;3.878;2023-07-29T04:21:31;17.90;99.90
23283;DHT22;11810;51.178;3.878;2023-07-29T04:23:57;17.80;99.90
23283;DHT22;11810;51.178;3.878;2023-07-29T04:26:22;17.80;99.90
23283;DHT22;11810;51.178;3.878;2023-07-29T04:28:48;17.90;99.90
23283;DHT22;11810;51.178;3.878;2023-07-29T04:31:15;18.00;99.90
23283;DHT22;11810;51.178;3.878;2023-07-29T04:33:40;18.10;99.90
23283;DHT22;11810;51.178;3.878;2023-07-29T04:36:06;18.30;99.90
23283;DHT22;11810;51.178;3.878;2023-07-29T04:38:33;18.40;99.90
23283;DHT22;11810;51.178;3.878;2023-07-29T04:40:59;18.40;99.90
23283;DHT22;11810;51.178;3.878;2023-07-29T04:43:28;18.40;99.90
23283;DHT22;11810;51.178;3.878;2023-07-29T04:45:54;18.10;99.90
23283;DHT22;11810;51.178;3.878;2023-07-29T04:48:20;18.00;99.90
23283;DHT22;11810;51.178;3.878;2023-07-29T04:50:47;18.10;99.90
23283;DHT22;11810;51.178;3.878;2023-07-29T04:53:13;18.00;99.90
23283;DHT22;11810;51.178;3.878;2023-07-29T04:55:43;18.00;99.90
23283;DHT22;11810;51.178;3.878;2023-07-29T04:58:09;18.10;99.90
23283;DHT22;11810;51.178;3.878;2023-07-29T05:00:35;18.20;99.90
23283;DHT22;11810;51.178;3.878;2023-07-29T05:03:01;18.10;99.90
23283;DHT22;11810;51.178;3.878;2023-07-29T05:05:27;18.10;99.90
23283;DHT22;11810;51.178;3.878;2023-07-29T05:07:53;18.20;99.90
23283;DHT22;11810;51.178;3.878;2023-07-29T05:10:19;18.20;99.90
23283;DHT22;11810;51.178;3.878;2023-07-29T05:12:46;18.30;99.90
23283;DHT22;11810;51.178;3.878;2023-07-29T05:15:12;18.40;99.90
23283;DHT22;11810;51.178;3.878;2023-07-29T05:17:38;18.40;99.90
23283;DHT22;11810;51.178;3.878;2023-07-29T05:20:04;18.40;99.90
23283;DHT22;11810;51.178;3.878;2023-07-29T05:22:30;18.40;99.90
23283;DHT22;11810;51.178;3.878;2023-07-29T05:24:56;18.40;99.90
23283;DHT22;11810;51.178;3.878;2023-07-29T05:27:22;18.20;99.90
23283;DHT22;11810;51.178;3.878;2023-07-29T05:29:48;18.30;99.90
23283;DHT22;11810;51.178;3.878;2023-07-29T05:32:13;18.20;99.90
23283;DHT22;11810;51.178;3.878;2023-07-29T05:34:40;18.40;99.90
23283;DHT22;11810;51.178;3.878;2023-07-29T05:37:07;18.70;99.90
23283;DHT22;11810;51.178;3.878;2023-07-29T05:39:33;19.10;99.90
23283;DHT22;11810;51.178;3.878;2023-07-29T05:41:59;19.60;99.90
23283;DHT22;11810;51.178;3.878;2023-07-29T05:44:29;20.00;99.90
23283;DHT22;11810;51.178;3.878;2023-07-29T05:46:56;20.50;99.90
23283;DHT22;11810;51.178;3.878;2023-07-29T05:49:22;21.00;99.90
23283;DHT22;11810;51.178;3.878;2023-07-29T05:51:48;21.60;99.90
23283;DHT22;11810;51.178;3.878;2023-07-29T05:54:17;22.00;99.90
23283;DHT22;11810;51.178;3.878;2023-07-29T05:56:43;22.20;99.90
23283;DHT22;11810;51.178;3.878;2023-07-29T05:59:09;22.30;99.90
23283;DHT22;11810;51.178;3.878;2023-07-29T06:01:35;22.40;99.90
23283;DHT22;11810;51.178;3.878;2023-07-29T06:04:01;22.40;99.90
23283;DHT22;11810;51.178;3.878;2023-07-29T06:06:27;22.20;99.90
23283;DHT22;11810;51.178;3.878;2023-07-29T06:08:53;22.00;99.90
23283;DHT22;11810;51.178;3.878;2023-07-29T06:11:19;21.50;99.90
23283;DHT22;11810;51.178;3.878;2023-07-29T06:13:47;21.40;99.90
23283;DHT22;11810;51.178;3.878;2023-07-29T06:16:13;21.20;99.90
23283;DHT22;11810;51.178;3.878;2023-07-29T06:18:39;21.10;99.90
23283;DHT22;11810;51.178;3.878;2023-07-29T06:21:05;21.00;99.90
23283;DHT22;11810;51.178;3.878;2023-07-29T06:23:36;21.10;99.90
23283;DHT22;11810;51.178;3.878;2023-07-29T06:26:02;21.20;99.90
23283;DHT22;11810;51.178;3.878;2023-07-29T06:28:28;21.20;99.90
23283;DHT22;11810;51.178;3.878;2023-07-29T06:30:54;21.10;99.90
23283;DHT22;11810;51.178;3.878;2023-07-29T06:33:20;21.10;99.90
23283;DHT22;11810;51.178;3.878;2023-07-29T06:35:46;21.10;99.90
23283;DHT22;11810;51.178;3.878;2023-07-29T06:38:12;20.70;99.90
23283;DHT22;11810;51.178;3.878;2023-07-29T06:40:38;20.50;99.90
23283;DHT22;11810;51.178;3.878;2023-07-29T06:43:03;20.50;99.90
23283;DHT22;11810;51.178;3.878;2023-07-29T06:45:29;20.40;99.90
23283;DHT22;11810;51.178;3.878;2023-07-29T06:47:56;20.50;99.90
23283;DHT22;11810;51.178;3.878;2023-07-29T06:50:22;21.10;99.90
23283;DHT22;11810;51.178;3.878;2023-07-29T06:52:48;21.30;99.90
23283;DHT22;11810;51.178;3.878;2023-07-29T06:55:14;21.70;99.90
23283;DHT22;11810;51.178;3.878;2023-07-29T06:57:40;22.40;99.90
23283;DHT22;11810;51.178;3.878;2023-07-29T07:00:07;23.00;99.90
23283;DHT22;11810;51.178;3.878;2023-07-29T07:02:34;22.70;99.90
23283;DHT22;11810;51.178;3.878;2023-07-29T07:05:00;22.40;99.90
23283;DHT22;11810;51.178;3.878;2023-07-29T07:07:26;22.10;99.90
23283;DHT22;11810;51.178;3.878;2023-07-29T07:09:52;22.40;99.90
23283;DHT22;11810;51.178;3.878;2023-07-29T07:12:18;22.50;99.90
23283;DHT22;11810;51.178;3.878;2023-07-29T07:14:44;22.80;99.90
23283;DHT22;11810;51.178;3.878;2023-07-29T07:17:10;23.20;99.90
23283;DHT22;11810;51.178;3.878;2023-07-29T07:19:36;23.30;99.90
23283;DHT22;11810;51.178;3.878;2023-07-29T07:22:02;22.80;99.90
23283;DHT22;11810;51.178;3.878;2023-07-29T07:24:28;22.80;99.90
23283;DHT22;11810;51.178;3.878;2023-07-29T07:26:54;23.30;99.90
23283;DHT22;11810;51.178;3.878;2023-07-29T07:29:20;23.30;99.90
23283;DHT22;11810;51.178;3.878;2023-07-29T07:31:53;23.20;99.90
23283;DHT22;11810;51.178;3.878;2023-07-29T07:34:20;22.80;99.90
23283;DHT22;11810;51.178;3.878;2023-07-29T07:36:47;23.00;99.90
23283;DHT22;11810;51.178;3.878;2023-07-29T07:39:13;23.10;99.90
23283;DHT22;11810;51.178;3.878;2023-07-29T07:41:40;23.30;99.90
23283;DHT22;11810;51.178;3.878;2023-07-29T07:44:06;24.50;99.90
23283;DHT22;11810;51.178;3.878;2023-07-29T07:46:32;24.70;99.90
23283;DHT22;11810;51.178;3.878;2023-07-29T07:48:58;24.30;99.90
23283;DHT22;11810;51.178;3.878;2023-07-29T07:51:24;24.40;99.90
23283;DHT22;11810;51.178;3.878;2023-07-29T07:53:50;24.90;99.90
23283;DHT22;11810;51.178;3.878;2023-07-29T07:56:16;25.20;99.90
23283;DHT22;11810;51.178;3.878;2023-07-29T07:58:42;24.80;99.90
23283;DHT22;11810;51.178;3.878;2023-07-29T08:01:09;25.20;99.90
23283;DHT22;11810;51.178;3.878;2023-07-29T08:03:35;25.40;99.90
23283;DHT22;11810;51.178;3.878;2023-07-29T08:06:02;25.00;99.90
23283;DHT22;11810;51.178;3.878;2023-07-29T08:08:29;24.90;99.90
23283;DHT22;11810;51.178;3.878;2023-07-29T08:10:56;25.00;99.90
23283;DHT22;11810;51.178;3.878;2023-07-29T08:13:23;25.20;99.90
23283;DHT22;11810;51.178;3.878;2023-07-29T08:15:51;25.10;99.90
23283;DHT22;11810;51.178;3.878;2023-07-29T08:18:18;25.10;99.90
23283;DHT22;11810;51.178;3.878;2023-07-29T08:20:58;25.70;99.90
23283;DHT22;11810;51.178;3.878;2023-07-29T08:23:27;26.80;99.90
23283;DHT22;11810;51.178;3.878;2023-07-29T08:25:57;28.00;99.90
23283;DHT22;11810;51.178;3.878;2023-07-29T08:28:39;28.40;99.90
23283;DHT22;11810;51.178;3.878;2023-07-29T08:31:05;27.60;99.90
23283;DHT22;11810;51.178;3.878;2023-07-29T08:33:32;26.90;99.90
23283;DHT22;11810;51.178;3.878;2023-07-29T08:36:02;26.00;99.90
23283;DHT22;11810;51.178;3.878;2023-07-29T08:38:28;26.00;99.90
23283;DHT22;11810;51.178;3.878;2023-07-29T08:43:40;25.60;99.90
23283;DHT22;11810;51.178;3.878;2023-07-29T08:46:07;25.90;99.90
23283;DHT22;11810;51.178;3.878;2023-07-29T08:48:40;26.20;99.90
23283;DHT22;11810;51.178;3.878;2023-07-29T08:51:10;27.40;99.90
23283;DHT22;11810;51.178;3.878;2023-07-29T08:53:37;28.50;99.90
23283;DHT22;11810;51.178;3.878;2023-07-29T08:56:04;29.20;99.90
23283;DHT22;11810;51.178;3.878;2023-07-29T08:58:32;28.90;99.90
23283;DHT22;11810;51.178;3.878;2023-07-29T09:00:59;28.40;99.90
23283;DHT22;11810;51.178;3.878;2023-07-29T09:03:25;28.00;99.90
23283;DHT22;11810;51.178;3.878;2023-07-29T09:05:51;27.90;99.90
23283;DHT22;11810;51.178;3.878;2023-07-29T09:08:18;27.60;99.90
23283;DHT22;11810;51.178;3.878;2023-07-29T09:10:44;27.10;99.90
23283;DHT22;11810;51.178;3.878;2023-07-29T09:13:10;26.50;99.90
23283;DHT22;11810;51.178;3.878;2023-07-29T09:15:37;25.50;99.90
23283;DHT22;11810;51.178;3.878;2023-07-29T09:18:17;25.50;99.90
23283;DHT22;11810;51.178;3.878;2023-07-29T09:20:46;25.20;99.90
23283;DHT22;11810;51.178;3.878;2023-07-29T09:23:13;25.10;99.90
23283;DHT22;11810;51.178;3.878;2023-07-29T09:25:39;25.00;99.90
23283;DHT22;11810;51.178;3.878;2023-07-29T09:28:23;24.70;99.90
23283;DHT22;11810;51.178;3.878;2023-07-29T09:30:49;24.40;99.90
23283;DHT22;11810;51.178;3.878;2023-07-29T09:33:18;24.10;99.90
23283;DHT22;11810;51.178;3.878;2023-07-29T09:35:44;23.50;99.90
23283;DHT22;11810;51.178;3.878;2023-07-29T09:38:14;23.20;99.90
23283;DHT22;11810;51.178;3.878;2023-07-29T09:40:41;22.80;99.90
23283;DHT22;11810;51.178;3.878;2023-07-29T09:43:09;22.40;99.90
23283;DHT22;11810;51.178;3.878;2023-07-29T09:45:36;22.20;99.90
23283;DHT22;11810;51.178;3.878;2023-07-29T09:48:04;22.00;99.90
23283;DHT22;11810;51.178;3.878;2023-07-29T09:50:35;21.70;99.90
23283;DHT22;11810;51.178;3.878;2023-07-29T09:53:02;21.60;99.90
23283;DHT22;11810;51.178;3.878;2023-07-29T09:55:29;21.30;99.90
23283;DHT22;11810;51.178;3.878;2023-07-29T09:57:59;21.20;99.90
23283;DHT22;11810;51.178;3.878;2023-07-29T10:00:34;21.20;99.90
23283;DHT22;11810;51.178;3.878;2023-07-29T10:03:01;21.20;99.90
23283;DHT22;11810;51.178;3.878;2023-07-29T10:05:27;21.10;99.90
23283;DHT22;11810;51.178;3.878;2023-07-29T10:07:54;21.10;99.90
23283;DHT22;11810;51.178;3.878;2023-07-29T10:10:21;21.30;99.90
23283;DHT22;11810;51.178;3.878;2023-07-29T10:12:47;21.70;99.90
23283;DHT22;11810;51.178;3.878;2023-07-29T10:15:13;21.90;99.90
23283;DHT22;11810;51.178;3.878;2023-07-29T10:17:39;22.30;99.90
23283;DHT22;11810;51.178;3.878;2023-07-29T10:20:07;22.60;99.90
23283;DHT22;11810;51.178;3.878;2023-07-29T10:22:39;23.20;99.90
23283;DHT22;11810;51.178;3.878;2023-07-29T10:25:17;23.40;99.90
23283;DHT22;11810;51.178;3.878;2023-07-29T10:27:58;23.40;99.90
23283;DHT22;11810;51.178;3.878;2023-07-29T10:30:25;23.60;99.90
23283;DHT22;11810;51.178;3.878;2023-07-29T10:32:54;23.50;99.90
23283;DHT22;11810;51.178;3.878;2023-07-29T10:35:21;23.50;99.90
23283;DHT22;11810;51.178;3.878;2023-07-29T10:37:47;23.60;99.90
23283;DHT22;11810;51.178;3.878;2023-07-29T10:40:16;23.60;99.90
23283;DHT22;11810;51.178;3.878;2023-07-29T10:43:12;23.80;99.90
23283;DHT22;11810;51.178;3.878;2023-07-29T10:45:41;23.30;99.90
23283;DHT22;11810;51.178;3.878;2023-07-29T10:48:12;22.50;99.90
23283;DHT22;11810;51.178;3.878;2023-07-29T10:50:38;21.90;99.90
23283;DHT22;11810;51.178;3.878;2023-07-29T10:53:06;21.70;99.90
23283;DHT22;11810;51.178;3.878;2023-07-29T10:55:36;21.30;99.90
23283;DHT22;11810;51.178;3.878;2023-07-29T10:58:14;20.90;99.90
23283;DHT22;11810;51.178;3.878;2023-07-29T11:00:43;20.10;99.90
23283;DHT22;11810;51.178;3.878;2023-07-29T11:03:10;19.50;99.90
23283;DHT22;11810;51.178;3.878;2023-07-29T11:05:48;19.40;99.90
23283;DHT22;11810;51.178;3.878;2023-07-29T11:08:20;19.40;99.90
23283;DHT22;11810;51.178;3.878;2023-07-29T11:11:07;19.30;99.90
23283;DHT22;11810;51.178;3.878;2023-07-29T11:13:36;19.50;99.90
23283;DHT22;11810;51.178;3.878;2023-07-29T11:16:03;19.70;99.90
23283;DHT22;11810;51.178;3.878;2023-07-29T11:18:31;19.90;99.90
23283;DHT22;11810;51.178;3.878;2023-07-29T11:20:58;20.10;99.90
23283;DHT22;11810;51.178;3.878;2023-07-29T11:23:33;20.00;99.90
23283;DHT22;11810;51.178;3.878;2023-07-29T11:26:01;20.10;99.90
23283;DHT22;11810;51.178;3.878;2023-07-29T11:28:27;20.90;99.90
23283;DHT22;11810;51.178;3.878;2023-07-29T11:30:55;21.90;99.90
23283;DHT22;11810;51.178;3.878;2023-07-29T11:33:25;23.10;99.90
23283;DHT22;11810;51.178;3.878;2023-07-29T11:35:54;23.60;99.90
23283;DHT22;11810;51.178;3.878;2023-07-29T11:38:21;23.50;99.90
23283;DHT22;11810;51.178;3.878;2023-07-29T11:40:55;24.00;99.90
23283;DHT22;11810;51.178;3.878;2023-07-29T11:43:21;25.00;99.90
23283;DHT22;11810;51.178;3.878;2023-07-29T11:45:47;25.60;99.90
23283;DHT22;11810;51.178;3.878;2023-07-29T11:48:13;26.30;99.90
23283;DHT22;11810;51.178;3.878;2023-07-29T11:50:39;26.20;99.90
23283;DHT22;11810;51.178;3.878;2023-07-29T11:53:05;26.30;99.90
23283;DHT22;11810;51.178;3.878;2023-07-29T11:55:33;26.70;99.90
23283;DHT22;11810;51.178;3.878;2023-07-29T11:58:01;27.50;99.90
23283;DHT22;11810;51.178;3.878;2023-07-29T12:00:27;27.40;99.90
23283;DHT22;11810;51.178;3.878;2023-07-29T12:02:54;27.30;99.90
23283;DHT22;11810;51.178;3.878;2023-07-29T12:05:21;27.30;99.90
23283;DHT22;11810;51.178;3.878;2023-07-29T12:07:48;27.50;99.90
23283;DHT22;11810;51.178;3.878;2023-07-29T12:10:14;28.10;99.90
23283;DHT22;11810;51.178;3.878;2023-07-29T12:12:50;27.50;99.90
23283;DHT22;11810;51.178;3.878;2023-07-29T12:15:29;27.60;99.90
23283;DHT22;11810;51.178;3.878;2023-07-29T12:17:56;27.50;99.90
23283;DHT22;11810;51.178;3.878;2023-07-29T12:20:22;27.60;99.90
23283;DHT22;11810;51.178;3.878;2023-07-29T12:22:53;27.00;99.90
23283;DHT22;11810;51.178;3.878;2023-07-29T12:25:19;26.60;99.90
23283;DHT22;11810;51.178;3.878;2023-07-29T12:27:45;26.90;99.90
23283;DHT22;11810;51.178;3.878;2023-07-29T12:30:12;27.50;99.90
23283;DHT22;11810;51.178;3.878;2023-07-29T12:32:47;27.90;99.90
23283;DHT22;11810;51.178;3.878;2023-07-29T12:35:14;27.10;99.90
23283;DHT22;11810;51.178;3.878;2023-07-29T12:37:40;27.00;99.90
23283;DHT22;11810;51.178;3.878;2023-07-29T12:40:37;27.10;99.90
23283;DHT22;11810;51.178;3.878;2023-07-29T12:43:03;27.30;99.90
23283;DHT22;11810;51.178;3.878;2023-07-29T12:45:35;28.40;99.90
23283;DHT22;11810;51.178;3.878;2023-07-29T12:48:02;28.90;99.90
23283;DHT22;11810;51.178;3.878;2023-07-29T12:50:27;28.50;99.90
23283;DHT22;11810;51.178;3.878;2023-07-29T12:52:54;28.00;99.90
23283;DHT22;11810;51.178;3.878;2023-07-29T12:55:20;28.00;99.90
23283;DHT22;11810;51.178;3.878;2023-07-29T12:57:46;28.10;99.90
23283;DHT22;11810;51.178;3.878;2023-07-29T13:00:12;28.80;99.90
23283;DHT22;11810;51.178;3.878;2023-07-29T13:02:38;28.00;99.90
23283;DHT22;11810;51.178;3.878;2023-07-29T13:05:05;27.50;99.90
23283;DHT22;11810;51.178;3.878;2023-07-29T13:07:31;27.00;99.90
23283;DHT22;11810;51.178;3.878;2023-07-29T13:09:57;26.50;99.90
23283;DHT22;11810;51.178;3.878;2023-07-29T13:12:23;26.50;99.90
23283;DHT22;11810;51.178;3.878;2023-07-29T13:14:49;26.20;99.90
23283;DHT22;11810;51.178;3.878;2023-07-29T13:17:15;25.70;99.90
23283;DHT22;11810;51.178;3.878;2023-07-29T13:19:41;25.10;99.90
23283;DHT22;11810;51.178;3.878;2023-07-29T13:22:07;24.80;99.90
23283;DHT22;11810;51.178;3.878;2023-07-29T13:24:33;24.70;99.90
23283;DHT22;11810;51.178;3.878;2023-07-29T13:26:58;24.70;99.90
23283;DHT22;11810;51.178;3.878;2023-07-29T13:29:24;25.10;99.90
23283;DHT22;11810;51.178;3.878;2023-07-29T13:31:50;24.90;99.90
23283;DHT22;11810;51.178;3.878;2023-07-29T13:34:16;24.60;99.90
23283;DHT22;11810;51.178;3.878;2023-07-29T13:36:42;24.20;99.90
23283;DHT22;11810;51.178;3.878;2023-07-29T13:39:08;23.90;99.90
23283;DHT22;11810;51.178;3.878;2023-07-29T13:41:34;23.30;99.90
23283;DHT22;11810;51.178;3.878;2023-07-29T13:44:00;22.60;99.90
23283;DHT22;11810;51.178;3.878;2023-07-29T13:46:25;22.00;99.90
23283;DHT22;11810;51.178;3.878;2023-07-29T13:48:51;21.80;99.90
23283;DHT22;11810;51.178;3.878;2023-07-29T13:51:17;21.40;99.90
23283;DHT22;11810;51.178;3.878;2023-07-29T13:53:43;21.10;99.90
23283;DHT22;11810;51.178;3.878;2023-07-29T13:56:09;21.30;99.90
23283;DHT22;11810;51.178;3.878;2023-07-29T13:58:35;21.50;99.90
23283;DHT22;11810;51.178;3.878;2023-07-29T14:01:01;21.70;99.90
23283;DHT22;11810;51.178;3.878;2023-07-29T14:03:27;22.30;99.90
23283;DHT22;11810;51.178;3.878;2023-07-29T14:05:53;23.10;99.90
23283;DHT22;11810;51.178;3.878;2023-07-29T14:08:19;23.50;99.90
23283;DHT22;11810;51.178;3.878;2023-07-29T14:10:45;23.60;99.90
23283;DHT22;11810;51.178;3.878;2023-07-29T14:13:11;23.60;99.90
23283;DHT22;11810;51.178;3.878;2023-07-29T14:15:37;24.00;99.90
23283;DHT22;11810;51.178;3.878;2023-07-29T14:18:03;24.30;99.90
23283;DHT22;11810;51.178;3.878;2023-07-29T14:20:29;24.20;99.90
23283;DHT22;11810;51.178;3.878;2023-07-29T14:22:55;24.00;99.90
23283;DHT22;11810;51.178;3.878;2023-07-29T14:25:20;24.10;99.90
23283;DHT22;11810;51.178;3.878;2023-07-29T14:27:46;24.20;99.90
23283;DHT22;11810;51.178;3.878;2023-07-29T14:30:12;24.20;99.90
23283;DHT22;11810;51.178;3.878;2023-07-29T14:32:38;24.40;99.90
23283;DHT22;11810;51.178;3.878;2023-07-29T14:35:04;24.40;99.90
23283;DHT22;11810;51.178;3.878;2023-07-29T14:37:31;24.50;99.90
23283;DHT22;11810;51.178;3.878;2023-07-29T14:39:58;24.40;99.90
23283;DHT22;11810;51.178;3.878;2023-07-29T14:42:24;24.10;99.90
23283;DHT22;11810;51.178;3.878;2023-07-29T14:44:50;23.70;99.90
23283;DHT22;11810;51.178;3.878;2023-07-29T14:47:16;23.70;99.90
23283;DHT22;11810;51.178;3.878;2023-07-29T14:49:42;24.00;99.90
23283;DHT22;11810;51.178;3.878;2023-07-29T14:52:08;24.30;99.90
23283;DHT22;11810;51.178;3.878;2023-07-29T14:54:33;24.40;99.90
23283;DHT22;11810;51.178;3.878;2023-07-29T14:56:59;24.30;99.90
23283;DHT22;11810;51.178;3.878;2023-07-29T14:59:25;24.50;99.90
23283;DHT22;11810;51.178;3.878;2023-07-29T15:01:51;24.40;99.90
23283;DHT22;11810;51.178;3.878;2023-07-29T15:04:17;24.40;99.90
23283;DHT22;11810;51.178;3.878;2023-07-29T15:06:43;24.60;99.90
23283;DHT22;11810;51.178;3.878;2023-07-29T15:09:09;24.70;99.90
23283;DHT22;11810;51.178;3.878;2023-07-29T15:11:35;24.50;99.90
23283;DHT22;11810;51.178;3.878;2023-07-29T15:14:02;24.10;99.90
23283;DHT22;11810;51.178;3.878;2023-07-29T15:16:31;24.10;99.90
23283;DHT22;11810;51.178;3.878;2023-07-29T15:18:59;24.30;99.90
23283;DHT22;11810;51.178;3.878;2023-07-29T15:21:25;24.30;99.90
23283;DHT22;11810;51.178;3.878;2023-07-29T15:23:51;24.20;99.90
23283;DHT22;11810;51.178;3.878;2023-07-29T15:26:17;24.10;99.90
23283;DHT22;11810;51.178;3.878;2023-07-29T15:28:43;23.80;99.90
23283;DHT22;11810;51.178;3.878;2023-07-29T15:31:09;23.50;99.90
23283;DHT22;11810;51.178;3.878;2023-07-29T15:33:36;23.70;99.90
23283;DHT22;11810;51.178;3.878;2023-07-29T15:36:02;23.90;99.90
23283;DHT22;11810;51.178;3.878;2023-07-29T15:38:28;24.40;99.90